sensor_id;sensor_type;location;lat;lon;timestamp;P1;durP1;ratioP1;P2;durP2;ratioP2
80694;SDS011;70059;42.702;23.312;2024-02-21T00:00:18;12.85;;;9.35;;
80694;SDS011;70059;42.702;23.312;2024-02-21T00:02:44;10.00;;;8.52;;
80694;SDS011;70059;42.702;23.312;2024-02-21T00:05:10;11.50;;;9.55;;
80694;SDS011;70059;42.702;23.312;2024-02-21T00:07:36;12.10;;;9.55;;
80694;SDS011;70059;42.702;23.312;2024-02-21T00:10:02;11.50;;;9.38;;
80694;SDS011;70059;42.702;23.312;2024-02-21T00:12:28;10.05;;;8.48;;
80694;SDS011;70059;42.702;23.312;2024-02-21T00:14:54;11.88;;;8.93;;
80694;SDS011;70059;42.702;23.312;2024-02-21T00:17:19;10.00;;;8.32;;
80694;SDS011;70059;42.702;23.312;2024-02-21T00:19:45;11.23;;;9.02;;
80694;SDS011;70059;42.702;23.312;2024-02-21T00:22:10;10.52;;;8.90;;
80694;SDS011;70059;42.702;23.312;2024-02-21T00:24:36;11.40;;;8.90;;
80694;SDS011;70059;42.702;23.312;2024-02-21T00:27:02;9.43;;;8.25;;
80694;SDS011;70059;42.702;23.312;2024-02-21T00:29:28;10.73;;;9.13;;
80694;SDS011;70059;42.702;23.312;2024-02-21T00:31:53;9.95;;;8.73;;
80694;SDS011;70059;42.702;23.312;2024-02-21T00:34:19;10.50;;;8.98;;
80694;SDS011;70059;42.702;23.312;2024-02-21T00:36:45;10.25;;;8.45;;
80694;SDS011;70059;42.702;23.312;2024-02-21T00:39:10;11.20;;;8.93;;
80694;SDS011;70059;42.702;23.312;2024-02-21T00:41:36;11.68;;;8.95;;
80694;SDS011;70059;42.702;23.312;2024-02-21T00:44:02;11.32;;;8.75;;
80694;SDS011;70059;42.702;23.312;2024-02-21T00:46:30;11.10;;;8.90;;
80694;SDS011;70059;42.702;23.312;2024-02-21T00:48:56;10.68;;;8.68;;
80694;SDS011;70059;42.702;23.312;2024-02-21T00:51:21;9.85;;;8.85;;
80694;SDS011;70059;42.702;23.312;2024-02-21T00:53:47;9.88;;;8.38;;
80694;SDS011;70059;42.702;23.312;2024-02-21T00:56:13;10.27;;;8.35;;
80694;SDS011;70059;42.702;23.312;2024-02-21T00:58:38;9.90;;;8.43;;
80694;SDS011;70059;42.702;23.312;2024-02-21T01:01:04;10.48;;;8.80;;
80694;SDS011;70059;42.702;23.312;2024-02-21T01:03:30;9.52;;;8.52;;
80694;SDS011;70059;42.702;23.312;2024-02-21T01:05:55;11.00;;;8.80;;
80694;SDS011;70059;42.702;23.312;2024-02-21T01:08:21;10.98;;;8.98;;
80694;SDS011;70059;42.702;23.312;2024-02-21T01:10:47;9.30;;;8.27;;
80694;SDS011;70059;42.702;23.312;2024-02-21T01:13:12;9.10;;;8.13;;
80694;SDS011;70059;42.702;23.312;2024-02-21T01:15:38;10.60;;;8.98;;
80694;SDS011;70059;42.702;23.312;2024-02-21T01:18:04;10.18;;;8.70;;
80694;SDS011;70059;42.702;23.312;2024-02-21T01:20:30;10.32;;;8.75;;
80694;SDS011;70059;42.702;23.312;2024-02-21T01:23:02;11.27;;;9.30;;
80694;SDS011;70059;42.702;23.312;2024-02-21T01:25:27;11.65;;;9.32;;
80694;SDS011;70059;42.702;23.312;2024-02-21T01:27:53;10.27;;;8.75;;
80694;SDS011;70059;42.702;23.312;2024-02-21T01:30:18;9.90;;;8.90;;
80694;SDS011;70059;42.702;23.312;2024-02-21T01:32:50;9.63;;;8.63;;
80694;SDS011;70059;42.702;23.312;2024-02-21T01:35:16;11.05;;;9.02;;
80694;SDS011;70059;42.702;23.312;2024-02-21T01:37:43;11.20;;;8.60;;
80694;SDS011;70059;42.702;23.312;2024-02-21T01:40:09;9.57;;;8.52;;
80694;SDS011;70059;42.702;23.312;2024-02-21T01:42:38;10.05;;;8.93;;
80694;SDS011;70059;42.702;23.312;2024-02-21T01:45:05;12.30;;;9.30;;
80694;SDS011;70059;42.702;23.312;2024-02-21T01:47:31;9.80;;;8.70;;
80694;SDS011;70059;42.702;23.312;2024-02-21T01:49:57;10.85;;;9.13;;
80694;SDS011;70059;42.702;23.312;2024-02-21T01:52:23;10.57;;;8.85;;
80694;SDS011;70059;42.702;23.312;2024-02-21T01:54:48;11.70;;;8.93;;
80694;SDS011;70059;42.702;23.312;2024-02-21T01:57:15;12.18;;;9.35;;
80694;SDS011;70059;42.702;23.312;2024-02-21T01:59:40;10.80;;;8.82;;
80694;SDS011;70059;42.702;23.312;2024-02-21T02:02:06;10.60;;;8.63;;
80694;SDS011;70059;42.702;23.312;2024-02-21T02:04:32;10.30;;;8.52;;
80694;SDS011;70059;42.702;23.312;2024-02-21T02:06:59;9.85;;;8.57;;
80694;SDS011;70059;42.702;23.312;2024-02-21T02:09:27;10.50;;;8.80;;
80694;SDS011;70059;42.702;23.312;2024-02-21T02:11:53;10.27;;;9.05;;
80694;SDS011;70059;42.702;23.312;2024-02-21T02:14:19;10.38;;;9.27;;
80694;SDS011;70059;42.702;23.312;2024-02-21T02:16:47;10.65;;;8.73;;
80694;SDS011;70059;42.702;23.312;2024-02-21T02:19:13;11.32;;;9.05;;
80694;SDS011;70059;42.702;23.312;2024-02-21T02:21:49;11.07;;;9.27;;
80694;SDS011;70059;42.702;23.312;2024-02-21T02:24:23;12.23;;;9.48;;
80694;SDS011;70059;42.702;23.312;2024-02-21T02:26:52;11.18;;;9.32;;
80694;SDS011;70059;42.702;23.312;2024-02-21T02:29:18;12.07;;;9.90;;
80694;SDS011;70059;42.702;23.312;2024-02-21T02:31:44;12.15;;;9.43;;
80694;SDS011;70059;42.702;23.312;2024-02-21T02:34:10;12.55;;;9.82;;
80694;SDS011;70059;42.702;23.312;2024-02-21T02:36:35;15.68;;;11.35;;
80694;SDS011;70059;42.702;23.312;2024-02-21T02:39:01;13.93;;;10.73;;
80694;SDS011;70059;42.702;23.312;2024-02-21T02:41:27;14.48;;;11.05;;
80694;SDS011;70059;42.702;23.312;2024-02-21T02:43:52;12.35;;;10.32;;
80694;SDS011;70059;42.702;23.312;2024-02-21T02:46:18;16.42;;;10.98;;
80694;SDS011;70059;42.702;23.312;2024-02-21T02:48:43;14.73;;;11.13;;
80694;SDS011;70059;42.702;23.312;2024-02-21T02:51:10;14.05;;;11.43;;
80694;SDS011;70059;42.702;23.312;2024-02-21T02:53:35;14.20;;;10.93;;
80694;SDS011;70059;42.702;23.312;2024-02-21T02:56:01;15.57;;;11.65;;
80694;SDS011;70059;42.702;23.312;2024-02-21T02:58:34;15.02;;;11.40;;
80694;SDS011;70059;42.702;23.312;2024-02-21T03:01:00;16.27;;;12.25;;
80694;SDS011;70059;42.702;23.312;2024-02-21T03:03:27;15.63;;;11.75;;
80694;SDS011;70059;42.702;23.312;2024-02-21T03:05:53;16.05;;;11.55;;
80694;SDS011;70059;42.702;23.312;2024-02-21T03:08:25;15.10;;;11.85;;
80694;SDS011;70059;42.702;23.312;2024-02-21T03:10:50;17.00;;;12.48;;
80694;SDS011;70059;42.702;23.312;2024-02-21T03:13:16;16.83;;;12.27;;
80694;SDS011;70059;42.702;23.312;2024-02-21T03:15:42;15.60;;;12.85;;
80694;SDS011;70059;42.702;23.312;2024-02-21T03:18:07;15.07;;;11.70;;
80694;SDS011;70059;42.702;23.312;2024-02-21T03:20:33;15.02;;;11.68;;
80694;SDS011;70059;42.702;23.312;2024-02-21T03:22:59;16.92;;;12.43;;
80694;SDS011;70059;42.702;23.312;2024-02-21T03:25:24;18.00;;;13.38;;
80694;SDS011;70059;42.702;23.312;2024-02-21T03:27:50;15.13;;;11.57;;
80694;SDS011;70059;42.702;23.312;2024-02-21T03:30:16;18.55;;;12.93;;
80694;SDS011;70059;42.702;23.312;2024-02-21T03:32:42;17.10;;;12.77;;
80694;SDS011;70059;42.702;23.312;2024-02-21T03:35:08;18.02;;;12.35;;
80694;SDS011;70059;42.702;23.312;2024-02-21T03:37:34;16.23;;;12.23;;
80694;SDS011;70059;42.702;23.312;2024-02-21T03:39:59;20.25;;;14.20;;
80694;SDS011;70059;42.702;23.312;2024-02-21T03:42:25;17.45;;;13.02;;
80694;SDS011;70059;42.702;23.312;2024-02-21T03:44:51;16.45;;;12.77;;
80694;SDS011;70059;42.702;23.312;2024-02-21T03:47:16;17.60;;;12.65;;
80694;SDS011;70059;42.702;23.312;2024-02-21T03:49:42;17.33;;;11.73;;
80694;SDS011;70059;42.702;23.312;2024-02-21T03:52:08;18.40;;;12.38;;
80694;SDS011;70059;42.702;23.312;2024-02-21T03:54:41;84.40;;;51.25;;
80694;SDS011;70059;42.702;23.312;2024-02-21T03:57:06;17.60;;;11.60;;
80694;SDS011;70059;42.702;23.312;2024-02-21T03:59:32;18.70;;;13.65;;
80694;SDS011;70059;42.702;23.312;2024-02-21T04:01:58;16.45;;;12.30;;
80694;SDS011;70059;42.702;23.312;2024-02-21T04:04:24;15.95;;;12.20;;
80694;SDS011;70059;42.702;23.312;2024-02-21T04:06:50;17.60;;;13.10;;
80694;SDS011;70059;42.702;23.312;2024-02-21T04:09:16;17.85;;;13.10;;
80694;SDS011;70059;42.702;23.312;2024-02-21T04:11:42;16.42;;;11.15;;
80694;SDS011;70059;42.702;23.312;2024-02-21T04:14:08;17.77;;;12.40;;
80694;SDS011;70059;42.702;23.312;2024-02-21T04:16:34;16.05;;;11.75;;
80694;SDS011;70059;42.702;23.312;2024-02-21T04:19:00;17.67;;;11.48;;
80694;SDS011;70059;42.702;23.312;2024-02-21T04:21:27;16.65;;;12.35;;
80694;SDS011;70059;42.702;23.312;2024-02-21T04:23:52;19.08;;;13.35;;
80694;SDS011;70059;42.702;23.312;2024-02-21T04:26:18;17.42;;;12.90;;
80694;SDS011;70059;42.702;23.312;2024-02-21T04:28:44;18.80;;;13.63;;
80694;SDS011;70059;42.702;23.312;2024-02-21T04:31:10;21.02;;;14.15;;
80694;SDS011;70059;42.702;23.312;2024-02-21T04:33:36;24.60;;;16.35;;
80694;SDS011;70059;42.702;23.312;2024-02-21T04:36:02;20.67;;;14.15;;
80694;SDS011;70059;42.702;23.312;2024-02-21T04:38:27;20.00;;;13.13;;
80694;SDS011;70059;42.702;23.312;2024-02-21T04:40:54;19.38;;;12.68;;
80694;SDS011;70059;42.702;23.312;2024-02-21T04:43:20;19.98;;;12.98;;
80694;SDS011;70059;42.702;23.312;2024-02-21T04:45:46;20.08;;;13.65;;
80694;SDS011;70059;42.702;23.312;2024-02-21T04:48:11;20.95;;;13.15;;
80694;SDS011;70059;42.702;23.312;2024-02-21T04:50:37;23.73;;;13.63;;
80694;SDS011;70059;42.702;23.312;2024-02-21T04:53:09;21.92;;;13.13;;
80694;SDS011;70059;42.702;23.312;2024-02-21T04:55:34;22.85;;;14.20;;
80694;SDS011;70059;42.702;23.312;2024-02-21T04:58:00;31.80;;;17.08;;
80694;SDS011;70059;42.702;23.312;2024-02-21T05:00:27;25.52;;;15.77;;
80694;SDS011;70059;42.702;23.312;2024-02-21T05:02:53;23.42;;;13.55;;
80694;SDS011;70059;42.702;23.312;2024-02-21T05:05:18;22.33;;;14.52;;
80694;SDS011;70059;42.702;23.312;2024-02-21T05:07:44;21.55;;;13.90;;
80694;SDS011;70059;42.702;23.312;2024-02-21T05:10:10;23.23;;;14.02;;
80694;SDS011;70059;42.702;23.312;2024-02-21T05:12:35;24.45;;;14.90;;
80694;SDS011;70059;42.702;23.312;2024-02-21T05:15:02;26.27;;;15.00;;
80694;SDS011;70059;42.702;23.312;2024-02-21T05:17:28;22.65;;;14.07;;
80694;SDS011;70059;42.702;23.312;2024-02-21T05:19:54;21.05;;;14.30;;
80694;SDS011;70059;42.702;23.312;2024-02-21T05:22:26;24.08;;;14.70;;
80694;SDS011;70059;42.702;23.312;2024-02-21T05:24:51;25.33;;;16.35;;
80694;SDS011;70059;42.702;23.312;2024-02-21T05:27:18;26.60;;;14.48;;
80694;SDS011;70059;42.702;23.312;2024-02-21T05:29:45;27.92;;;17.38;;
80694;SDS011;70059;42.702;23.312;2024-02-21T05:32:12;25.35;;;15.52;;
80694;SDS011;70059;42.702;23.312;2024-02-21T05:34:38;28.35;;;15.98;;
80694;SDS011;70059;42.702;23.312;2024-02-21T05:37:03;27.23;;;16.85;;
80694;SDS011;70059;42.702;23.312;2024-02-21T05:39:51;30.55;;;17.25;;
80694;SDS011;70059;42.702;23.312;2024-02-21T05:42:17;26.27;;;16.67;;
80694;SDS011;70059;42.702;23.312;2024-02-21T05:44:42;23.90;;;15.77;;
80694;SDS011;70059;42.702;23.312;2024-02-21T05:47:08;26.10;;;15.27;;
80694;SDS011;70059;42.702;23.312;2024-02-21T05:49:35;23.98;;;14.82;;
80694;SDS011;70059;42.702;23.312;2024-02-21T05:52:05;24.83;;;15.10;;
80694;SDS011;70059;42.702;23.312;2024-02-21T05:54:32;23.25;;;15.35;;
80694;SDS011;70059;42.702;23.312;2024-02-21T05:56:58;27.02;;;16.00;;
80694;SDS011;70059;42.702;23.312;2024-02-21T05:59:23;27.45;;;16.65;;
80694;SDS011;70059;42.702;23.312;2024-02-21T06:01:57;37.25;;;20.38;;
80694;SDS011;70059;42.702;23.312;2024-02-21T06:04:23;27.08;;;16.77;;
80694;SDS011;70059;42.702;23.312;2024-02-21T06:06:48;28.25;;;16.23;;
80694;SDS011;70059;42.702;23.312;2024-02-21T06:09:17;27.75;;;15.45;;
80694;SDS011;70059;42.702;23.312;2024-02-21T06:11:42;22.40;;;15.57;;
80694;SDS011;70059;42.702;23.312;2024-02-21T06:14:08;24.90;;;15.10;;
80694;SDS011;70059;42.702;23.312;2024-02-21T06:16:37;25.25;;;15.90;;
80694;SDS011;70059;42.702;23.312;2024-02-21T06:19:02;30.05;;;15.07;;
80694;SDS011;70059;42.702;23.312;2024-02-21T06:21:29;28.10;;;17.00;;
80694;SDS011;70059;42.702;23.312;2024-02-21T06:23:56;25.20;;;14.57;;
80694;SDS011;70059;42.702;23.312;2024-02-21T06:26:24;24.88;;;15.30;;
80694;SDS011;70059;42.702;23.312;2024-02-21T06:28:51;19.70;;;13.88;;
80694;SDS011;70059;42.702;23.312;2024-02-21T06:31:17;25.33;;;14.45;;
80694;SDS011;70059;42.702;23.312;2024-02-21T06:33:46;24.27;;;15.23;;
80694;SDS011;70059;42.702;23.312;2024-02-21T06:36:11;23.40;;;14.52;;
80694;SDS011;70059;42.702;23.312;2024-02-21T06:38:37;22.20;;;14.98;;
80694;SDS011;70059;42.702;23.312;2024-02-21T06:41:04;24.50;;;14.63;;
80694;SDS011;70059;42.702;23.312;2024-02-21T06:43:32;22.55;;;15.35;;
80694;SDS011;70059;42.702;23.312;2024-02-21T06:45:57;21.95;;;15.68;;
80694;SDS011;70059;42.702;23.312;2024-02-21T06:51:43;28.25;;;14.52;;
80694;SDS011;70059;42.702;23.312;2024-02-21T06:54:09;26.13;;;15.57;;
80694;SDS011;70059;42.702;23.312;2024-02-21T07:05:46;30.13;;;17.20;;
80694;SDS011;70059;42.702;23.312;2024-02-21T07:08:12;23.90;;;14.73;;
80694;SDS011;70059;42.702;23.312;2024-02-21T07:10:39;23.95;;;15.48;;
80694;SDS011;70059;42.702;23.312;2024-02-21T07:13:04;22.65;;;15.43;;
80694;SDS011;70059;42.702;23.312;2024-02-21T07:15:30;26.23;;;15.40;;
80694;SDS011;70059;42.702;23.312;2024-02-21T07:17:57;27.95;;;17.73;;
80694;SDS011;70059;42.702;23.312;2024-02-21T07:20:22;25.85;;;16.92;;
80694;SDS011;70059;42.702;23.312;2024-02-21T07:22:50;25.05;;;16.05;;
80694;SDS011;70059;42.702;23.312;2024-02-21T07:25:16;24.63;;;15.82;;
80694;SDS011;70059;42.702;23.312;2024-02-21T07:27:42;28.45;;;15.63;;
80694;SDS011;70059;42.702;23.312;2024-02-21T07:30:10;22.52;;;14.82;;
80694;SDS011;70059;42.702;23.312;2024-02-21T07:32:36;26.40;;;15.48;;
80694;SDS011;70059;42.702;23.312;2024-02-21T07:35:02;23.98;;;15.75;;
80694;SDS011;70059;42.702;23.312;2024-02-21T07:37:27;26.58;;;14.88;;
80694;SDS011;70059;42.702;23.312;2024-02-21T07:39:53;23.15;;;15.13;;
80694;SDS011;70059;42.702;23.312;2024-02-21T07:42:19;26.52;;;16.70;;
80694;SDS011;70059;42.702;23.312;2024-02-21T07:44:45;23.10;;;14.93;;
80694;SDS011;70059;42.702;23.312;2024-02-21T07:47:11;24.48;;;15.65;;
80694;SDS011;70059;42.702;23.312;2024-02-21T07:49:46;25.73;;;16.23;;
80694;SDS011;70059;42.702;23.312;2024-02-21T07:52:12;24.73;;;15.77;;
80694;SDS011;70059;42.702;23.312;2024-02-21T07:54:38;27.17;;;17.92;;
80694;SDS011;70059;42.702;23.312;2024-02-21T07:57:05;30.30;;;17.65;;
80694;SDS011;70059;42.702;23.312;2024-02-21T07:59:31;24.83;;;15.88;;
80694;SDS011;70059;42.702;23.312;2024-02-21T08:01:56;26.23;;;16.42;;
80694;SDS011;70059;42.702;23.312;2024-02-21T08:04:25;24.20;;;16.38;;
80694;SDS011;70059;42.702;23.312;2024-02-21T08:07:00;25.60;;;15.60;;
80694;SDS011;70059;42.702;23.312;2024-02-21T08:09:29;29.70;;;17.92;;
80694;SDS011;70059;42.702;23.312;2024-02-21T08:11:55;23.80;;;15.93;;
80694;SDS011;70059;42.702;23.312;2024-02-21T08:14:21;27.45;;;18.17;;
80694;SDS011;70059;42.702;23.312;2024-02-21T08:16:47;23.50;;;16.38;;
80694;SDS011;70059;42.702;23.312;2024-02-21T08:19:13;26.73;;;16.80;;
80694;SDS011;70059;42.702;23.312;2024-02-21T08:21:40;27.42;;;15.88;;
80694;SDS011;70059;42.702;23.312;2024-02-21T08:24:08;23.38;;;15.85;;
80694;SDS011;70059;42.702;23.312;2024-02-21T08:26:34;25.98;;;16.50;;
80694;SDS011;70059;42.702;23.312;2024-02-21T08:29:01;24.30;;;15.73;;
80694;SDS011;70059;42.702;23.312;2024-02-21T08:31:27;23.65;;;16.55;;
80694;SDS011;70059;42.702;23.312;2024-02-21T08:33:59;21.02;;;14.40;;
80694;SDS011;70059;42.702;23.312;2024-02-21T08:36:31;21.27;;;15.75;;
80694;SDS011;70059;42.702;23.312;2024-02-21T08:38:58;21.98;;;16.08;;
80694;SDS011;70059;42.702;23.312;2024-02-21T08:41:24;24.58;;;15.13;;
80694;SDS011;70059;42.702;23.312;2024-02-21T08:43:56;20.55;;;15.80;;
80694;SDS011;70059;42.702;23.312;2024-02-21T08:46:24;22.08;;;15.73;;
80694;SDS011;70059;42.702;23.312;2024-02-21T08:48:50;19.27;;;14.95;;
80694;SDS011;70059;42.702;23.312;2024-02-21T08:51:16;19.25;;;15.18;;
80694;SDS011;70059;42.702;23.312;2024-02-21T08:54:03;21.48;;;16.05;;
80694;SDS011;70059;42.702;23.312;2024-02-21T08:56:30;21.58;;;17.15;;
80694;SDS011;70059;42.702;23.312;2024-02-21T08:58:57;20.92;;;15.00;;
80694;SDS011;70059;42.702;23.312;2024-02-21T09:01:30;20.10;;;15.38;;
80694;SDS011;70059;42.702;23.312;2024-02-21T09:03:57;20.10;;;14.70;;
80694;SDS011;70059;42.702;23.312;2024-02-21T09:06:23;18.92;;;15.43;;
80694;SDS011;70059;42.702;23.312;2024-02-21T09:08:50;18.92;;;14.98;;
80694;SDS011;70059;42.702;23.312;2024-02-21T09:11:21;24.73;;;16.83;;
80694;SDS011;70059;42.702;23.312;2024-02-21T09:13:47;19.35;;;15.75;;
80694;SDS011;70059;42.702;23.312;2024-02-21T09:16:18;20.90;;;14.85;;
80694;SDS011;70059;42.702;23.312;2024-02-21T09:18:44;18.17;;;15.38;;
80694;SDS011;70059;42.702;23.312;2024-02-21T09:21:12;18.88;;;15.88;;
80694;SDS011;70059;42.702;23.312;2024-02-21T09:27:25;20.77;;;15.88;;
80694;SDS011;70059;42.702;23.312;2024-02-21T09:29:53;17.90;;;15.15;;
80694;SDS011;70059;42.702;23.312;2024-02-21T09:32:20;20.70;;;14.82;;
80694;SDS011;70059;42.702;23.312;2024-02-21T09:34:49;17.73;;;14.57;;
80694;SDS011;70059;42.702;23.312;2024-02-21T09:37:15;18.00;;;15.90;;
80694;SDS011;70059;42.702;23.312;2024-02-21T09:39:40;17.98;;;16.08;;
80694;SDS011;70059;42.702;23.312;2024-02-21T09:42:10;21.95;;;17.38;;
80694;SDS011;70059;42.702;23.312;2024-02-21T09:44:37;19.00;;;16.00;;
80694;SDS011;70059;42.702;23.312;2024-02-21T09:47:12;18.55;;;15.93;;
80694;SDS011;70059;42.702;23.312;2024-02-21T09:50:04;18.80;;;14.00;;
80694;SDS011;70059;42.702;23.312;2024-02-21T09:52:36;21.80;;;17.27;;
80694;SDS011;70059;42.702;23.312;2024-02-21T09:55:03;17.60;;;15.17;;
80694;SDS011;70059;42.702;23.312;2024-02-21T09:57:31;16.55;;;14.25;;
80694;SDS011;70059;42.702;23.312;2024-02-21T10:00:03;16.38;;;14.68;;
80694;SDS011;70059;42.702;23.312;2024-02-21T10:03:23;16.27;;;14.57;;
80694;SDS011;70059;42.702;23.312;2024-02-21T10:05:53;16.60;;;14.20;;
80694;SDS011;70059;42.702;23.312;2024-02-21T10:08:19;14.73;;;13.32;;
80694;SDS011;70059;42.702;23.312;2024-02-21T10:10:48;15.82;;;14.32;;
80694;SDS011;70059;42.702;23.312;2024-02-21T10:13:27;15.40;;;13.80;;
80694;SDS011;70059;42.702;23.312;2024-02-21T10:16:07;16.40;;;14.68;;
80694;SDS011;70059;42.702;23.312;2024-02-21T10:18:34;19.70;;;17.85;;
80694;SDS011;70059;42.702;23.312;2024-02-21T10:24:11;14.63;;;13.27;;
80694;SDS011;70059;42.702;23.312;2024-02-21T10:26:18;14.13;;;12.82;;
80694;SDS011;70059;42.702;23.312;2024-02-21T10:28:47;14.85;;;13.48;;
80694;SDS011;70059;42.702;23.312;2024-02-21T10:34:00;15.07;;;13.50;;
80694;SDS011;70059;42.702;23.312;2024-02-21T10:36:28;15.05;;;13.55;;
80694;SDS011;70059;42.702;23.312;2024-02-21T10:38:54;15.98;;;14.40;;
80694;SDS011;70059;42.702;23.312;2024-02-21T10:41:21;19.35;;;14.93;;
80694;SDS011;70059;42.702;23.312;2024-02-21T10:43:51;15.77;;;14.32;;
80694;SDS011;70059;42.702;23.312;2024-02-21T10:49:16;14.98;;;13.57;;
80694;SDS011;70059;42.702;23.312;2024-02-21T10:51:44;12.80;;;11.60;;
80694;SDS011;70059;42.702;23.312;2024-02-21T10:54:30;13.43;;;11.73;;
80694;SDS011;70059;42.702;23.312;2024-02-21T10:57:05;14.18;;;12.77;;
80694;SDS011;70059;42.702;23.312;2024-02-21T10:59:34;13.02;;;11.93;;
80694;SDS011;70059;42.702;23.312;2024-02-21T11:02:02;13.18;;;12.07;;
80694;SDS011;70059;42.702;23.312;2024-02-21T11:04:34;13.48;;;10.73;;
80694;SDS011;70059;42.702;23.312;2024-02-21T11:07:14;12.75;;;11.52;;
80694;SDS011;70059;42.702;23.312;2024-02-21T11:09:50;11.68;;;10.63;;
80694;SDS011;70059;42.702;23.312;2024-02-21T11:12:25;11.85;;;10.75;;
80694;SDS011;70059;42.702;23.312;2024-02-21T11:15:03;12.75;;;11.52;;
80694;SDS011;70059;42.702;23.312;2024-02-21T11:17:55;11.93;;;10.98;;
80694;SDS011;70059;42.702;23.312;2024-02-21T11:20:35;11.18;;;10.07;;
80694;SDS011;70059;42.702;23.312;2024-02-21T11:23:02;12.07;;;10.98;;
80694;SDS011;70059;42.702;23.312;2024-02-21T11:25:28;10.43;;;9.30;;
80694;SDS011;70059;42.702;23.312;2024-02-21T11:28:25;39.28;;;10.63;;
80694;SDS011;70059;42.702;23.312;2024-02-21T11:30:51;12.23;;;10.98;;
80694;SDS011;70059;42.702;23.312;2024-02-21T11:36:54;10.80;;;9.77;;
80694;SDS011;70059;42.702;23.312;2024-02-21T11:39:23;13.75;;;10.32;;
80694;SDS011;70059;42.702;23.312;2024-02-21T11:42:03;11.70;;;10.60;;
80694;SDS011;70059;42.702;23.312;2024-02-21T11:44:30;14.90;;;9.95;;
80694;SDS011;70059;42.702;23.312;2024-02-21T11:46:57;10.93;;;9.85;;
80694;SDS011;70059;42.702;23.312;2024-02-21T11:49:29;10.57;;;9.57;;
80694;SDS011;70059;42.702;23.312;2024-02-21T11:51:59;10.25;;;9.35;;
80694;SDS011;70059;42.702;23.312;2024-02-21T11:54:26;11.00;;;9.90;;
80694;SDS011;70059;42.702;23.312;2024-02-21T11:56:52;11.68;;;10.02;;
80694;SDS011;70059;42.702;23.312;2024-02-21T11:59:18;11.30;;;9.55;;
80694;SDS011;70059;42.702;23.312;2024-02-21T12:01:46;12.50;;;10.20;;
80694;SDS011;70059;42.702;23.312;2024-02-21T12:04:12;14.02;;;10.75;;
80694;SDS011;70059;42.702;23.312;2024-02-21T12:06:38;11.05;;;9.65;;
80694;SDS011;70059;42.702;23.312;2024-02-21T12:09:07;11.70;;;10.15;;
80694;SDS011;70059;42.702;23.312;2024-02-21T12:11:37;11.32;;;10.23;;
80694;SDS011;70059;42.702;23.312;2024-02-21T12:14:03;10.27;;;9.23;;
80694;SDS011;70059;42.702;23.312;2024-02-21T12:16:35;14.43;;;11.65;;
80694;SDS011;70059;42.702;23.312;2024-02-21T12:19:04;13.13;;;10.52;;
80694;SDS011;70059;42.702;23.312;2024-02-21T12:21:31;11.48;;;9.30;;
80694;SDS011;70059;42.702;23.312;2024-02-21T12:24:00;11.68;;;10.48;;
80694;SDS011;70059;42.702;23.312;2024-02-21T12:26:47;13.32;;;10.60;;
80694;SDS011;70059;42.702;23.312;2024-02-21T12:29:14;10.25;;;9.25;;
80694;SDS011;70059;42.702;23.312;2024-02-21T12:31:39;10.88;;;9.50;;
80694;SDS011;70059;42.702;23.312;2024-02-21T12:34:05;10.98;;;9.93;;
80694;SDS011;70059;42.702;23.312;2024-02-21T12:36:31;13.90;;;9.98;;
80694;SDS011;70059;42.702;23.312;2024-02-21T12:38:58;11.43;;;9.63;;
80694;SDS011;70059;42.702;23.312;2024-02-21T12:41:28;13.82;;;10.82;;
80694;SDS011;70059;42.702;23.312;2024-02-21T12:43:55;11.15;;;10.05;;
80694;SDS011;70059;42.702;23.312;2024-02-21T12:46:21;11.10;;;9.93;;
80694;SDS011;70059;42.702;23.312;2024-02-21T12:48:47;12.88;;;10.95;;
80694;SDS011;70059;42.702;23.312;2024-02-21T12:51:13;15.10;;;11.15;;
80694;SDS011;70059;42.702;23.312;2024-02-21T12:53:39;13.07;;;10.77;;
80694;SDS011;70059;42.702;23.312;2024-02-21T12:56:05;13.65;;;11.30;;
80694;SDS011;70059;42.702;23.312;2024-02-21T12:58:32;15.23;;;11.65;;
80694;SDS011;70059;42.702;23.312;2024-02-21T13:00:58;12.30;;;10.70;;
80694;SDS011;70059;42.702;23.312;2024-02-21T13:03:24;14.43;;;10.98;;
80694;SDS011;70059;42.702;23.312;2024-02-21T13:05:50;13.57;;;11.20;;
80694;SDS011;70059;42.702;23.312;2024-02-21T13:08:16;13.45;;;10.43;;
80694;SDS011;70059;42.702;23.312;2024-02-21T13:10:47;11.65;;;10.45;;
80694;SDS011;70059;42.702;23.312;2024-02-21T13:13:14;12.60;;;11.30;;
80694;SDS011;70059;42.702;23.312;2024-02-21T13:15:40;14.68;;;12.82;;
80694;SDS011;70059;42.702;23.312;2024-02-21T13:18:08;16.80;;;12.55;;
80694;SDS011;70059;42.702;23.312;2024-02-21T13:20:34;16.40;;;12.20;;
80694;SDS011;70059;42.702;23.312;2024-02-21T13:23:03;14.55;;;12.20;;
80694;SDS011;70059;42.702;23.312;2024-02-21T13:25:42;15.50;;;11.25;;
80694;SDS011;70059;42.702;23.312;2024-02-21T13:28:09;16.07;;;11.87;;
80694;SDS011;70059;42.702;23.312;2024-02-21T13:30:36;13.82;;;12.27;;
80694;SDS011;70059;42.702;23.312;2024-02-21T13:33:03;12.55;;;11.23;;
80694;SDS011;70059;42.702;23.312;2024-02-21T13:35:28;12.82;;;10.93;;
80694;SDS011;70059;42.702;23.312;2024-02-21T13:37:54;11.73;;;10.50;;
80694;SDS011;70059;42.702;23.312;2024-02-21T13:40:20;10.60;;;9.50;;
80694;SDS011;70059;42.702;23.312;2024-02-21T13:42:45;11.50;;;10.30;;
80694;SDS011;70059;42.702;23.312;2024-02-21T13:45:11;13.20;;;11.15;;
80694;SDS011;70059;42.702;23.312;2024-02-21T13:47:37;13.07;;;11.70;;
80694;SDS011;70059;42.702;23.312;2024-02-21T13:50:04;11.90;;;10.55;;
80694;SDS011;70059;42.702;23.312;2024-02-21T13:52:34;15.80;;;12.18;;
80694;SDS011;70059;42.702;23.312;2024-02-21T13:55:04;14.27;;;11.70;;
80694;SDS011;70059;42.702;23.312;2024-02-21T13:57:36;15.27;;;11.77;;
80694;SDS011;70059;42.702;23.312;2024-02-21T14:02:55;15.55;;;12.52;;
80694;SDS011;70059;42.702;23.312;2024-02-21T14:05:23;15.63;;;12.35;;
80694;SDS011;70059;42.702;23.312;2024-02-21T14:07:50;15.63;;;11.55;;
80694;SDS011;70059;42.702;23.312;2024-02-21T14:10:15;16.13;;;11.45;;
80694;SDS011;70059;42.702;23.312;2024-02-21T14:12:41;15.45;;;10.95;;
80694;SDS011;70059;42.702;23.312;2024-02-21T14:15:10;13.20;;;10.23;;
80694;SDS011;70059;42.702;23.312;2024-02-21T14:17:36;11.73;;;10.52;;
80694;SDS011;70059;42.702;23.312;2024-02-21T14:20:02;13.27;;;10.38;;
80694;SDS011;70059;42.702;23.312;2024-02-21T14:22:30;11.43;;;10.32;;
80694;SDS011;70059;42.702;23.312;2024-02-21T14:24:55;15.95;;;11.68;;
80694;SDS011;70059;42.702;23.312;2024-02-21T14:27:21;13.35;;;10.50;;
80694;SDS011;70059;42.702;23.312;2024-02-21T14:29:48;11.55;;;10.32;;
80694;SDS011;70059;42.702;23.312;2024-02-21T14:32:13;15.25;;;11.10;;
80694;SDS011;70059;42.702;23.312;2024-02-21T14:34:39;15.80;;;11.68;;
80694;SDS011;70059;42.702;23.312;2024-02-21T14:37:06;13.60;;;10.82;;
80694;SDS011;70059;42.702;23.312;2024-02-21T14:39:32;18.15;;;12.05;;
80694;SDS011;70059;42.702;23.312;2024-02-21T14:42:00;14.48;;;10.98;;
80694;SDS011;70059;42.702;23.312;2024-02-21T14:44:27;17.63;;;11.80;;
80694;SDS011;70059;42.702;23.312;2024-02-21T14:46:53;19.50;;;12.43;;